Time;durP1;ratioP1;P1;durP2;ratioP2;P2;SDS_P1;SDS_P2;PMS_P1;PMS_P2;Temp;Humidity;BMP_temperature;BMP_pressure;BME280_temperature;BME280_humidity;BME280_pressure;Samples;Min_cycle;Max_cycle;Signal;HPM_P1;HPM_P2
2022/10/28 00:01:44;;;;;;;10.60;5.77;;;;;;;16.91;100.00;101664.63;5248534;28;19967;-73
2022/10/28 00:04:16;;;;;;;12.48;6.05;;;;;;;16.85;100.00;101662.59;5249351;28;20025;-73
2022/10/28 00:06:47;;;;;;;12.75;6.00;;;;;;;16.80;100.00;101662.22;5241480;28;20082;-73
2022/10/28 00:09:18;;;;;;;11.15;6.65;;;;;;;16.74;100.00;101661.00;5236208;28;20029;-73
2022/10/28 00:11:50;;;;;;;8.00;5.40;;;;;;;16.65;100.00;101661.88;5250999;28;20040;-73
2022/10/28 00:14:22;;;;;;;13.50;5.90;;;;;;;16.64;100.00;101657.56;5244004;28;20033;-73
2022/10/28 00:16:53;;;;;;;12.73;6.30;;;;;;;16.51;100.00;101658.75;5245279;28;20028;-73
2022/10/28 00:19:24;;;;;;;14.93;5.93;;;;;;;16.53;100.00;101650.69;5224916;28;20025;-73
2022/10/28 00:21:55;;;;;;;11.85;6.38;;;;;;;16.58;100.00;101652.88;5242603;28;20021;-73
2022/10/28 00:24:27;;;;;;;12.25;5.93;;;;;;;16.43;100.00;101642.78;5223896;28;20054;-73
2022/10/28 00:26:58;;;;;;;14.52;7.13;;;;;;;16.48;100.00;101652.94;5248847;28;20028;-73
2022/10/28 00:29:31;;;;;;;11.18;5.60;;;;;;;16.49;100.00;101647.50;5242181;28;20044;-73
2022/10/28 00:32:02;;;;;;;10.90;5.95;;;;;;;16.35;100.00;101649.81;5244664;28;20470;-73
2022/10/28 00:34:33;;;;;;;9.93;6.10;;;;;;;16.29;100.00;101649.44;5247431;28;20045;-73
2022/10/28 00:37:04;;;;;;;14.70;5.90;;;;;;;16.15;100.00;101644.63;5246687;28;20021;-73
2022/10/28 00:39:36;;;;;;;10.65;6.25;;;;;;;16.22;100.00;101645.72;5240364;28;20029;-73
2022/10/28 00:42:09;;;;;;;10.85;6.38;;;;;;;16.28;100.00;101638.97;5247066;28;20021;-74
2022/10/28 00:45:03;;;;;;;12.57;6.05;;;;;;;16.50;100.00;101643.84;5244148;28;20037;-73
2022/10/28 00:47:55;;;;;;;12.10;6.43;;;;;;;16.25;100.00;101640.13;5242687;28;20382;-73
2022/10/28 00:50:41;;;;;;;12.23;6.18;;;;;;;16.32;100.00;101634.22;5239429;28;20033;-73
2022/10/28 00:53:18;;;;;;;11.82;6.60;;;;;;;16.08;100.00;101635.63;5246679;28;20080;-73
2022/10/28 00:55:50;;;;;;;12.32;6.53;;;;;;;16.13;100.00;101636.00;5248531;28;20082;-73
2022/10/28 00:58:23;;;;;;;12.10;5.75;;;;;;;16.01;100.00;101622.16;5242495;28;20129;-73
2022/10/28 01:00:55;;;;;;;12.35;6.30;;;;;;;15.97;100.00;101623.41;5242959;28;20429;-73
2022/10/28 01:03:26;;;;;;;12.65;6.40;;;;;;;15.93;100.00;101615.94;5239239;28;20052;-73
2022/10/28 01:05:58;;;;;;;14.50;6.80;;;;;;;15.91;100.00;101604.66;5246812;28;20021;-74
2022/10/28 01:08:31;;;;;;;8.75;5.65;;;;;;;15.87;100.00;101600.66;5247314;28;20024;-74
2022/10/28 01:11:14;;;;;;;11.20;6.03;;;;;;;16.07;100.00;101599.59;5244457;28;20037;-74
2022/10/28 01:14:11;;;;;;;11.05;6.03;;;;;;;16.14;100.00;101602.47;5249197;28;20025;-73
2022/10/28 01:16:51;;;;;;;11.52;5.57;;;;;;;15.72;100.00;101605.56;5245339;28;20104;-73
2022/10/28 01:19:28;;;;;;;10.07;5.30;;;;;;;15.67;100.00;101613.13;5243162;28;20052;-74
2022/10/28 01:22:24;;;;;;;11.15;6.35;;;;;;;15.79;100.00;101604.84;5245714;28;20378;-73
2022/10/28 01:25:21;;;;;;;8.45;5.75;;;;;;;15.92;100.00;101609.00;5250017;28;20021;-74
2022/10/28 01:28:10;;;;;;;9.10;5.65;;;;;;;15.81;100.00;101608.19;5243194;28;20076;-73
2022/10/28 01:31:22;;;;;;;11.30;5.28;;;;;;;15.84;100.00;101607.09;5248732;28;20139;-73
2022/10/28 01:34:15;;;;;;;12.52;5.32;;;;;;;15.63;100.00;101599.34;5242990;28;20024;-73
2022/10/28 01:36:56;;;;;;;11.02;5.40;;;;;;;15.52;100.00;101600.34;5245481;28;20121;-73
2022/10/28 01:39:45;;;;;;;11.80;5.53;;;;;;;15.67;100.00;101592.81;5248360;28;20490;-73
2022/10/28 01:42:20;;;;;;;13.55;6.18;;;;;;;15.54;100.00;101600.22;5243169;28;20082;-74
2022/10/28 01:44:54;;;;;;;11.40;5.88;;;;;;;15.38;100.00;101592.91;5248562;28;20044;-74
2022/10/28 01:47:31;;;;;;;7.93;5.32;;;;;;;15.42;100.00;101591.63;5245560;28;20029;-74
2022/10/28 01:50:13;;;;;;;13.43;5.97;;;;;;;15.52;100.00;101595.06;5243688;28;20030;-74
2022/10/28 01:52:46;;;;;;;12.35;6.03;;;;;;;15.39;100.00;101596.38;5243002;28;20032;-74
2022/10/28 01:55:24;;;;;;;11.52;5.70;;;;;;;15.33;100.00;101585.38;5244675;28;20021;-74
2022/10/28 01:57:58;;;;;;;10.55;5.50;;;;;;;15.26;100.00;101592.19;5237181;28;20506;-74
2022/10/28 02:00:31;;;;;;;13.20;6.13;;;;;;;15.31;100.00;101592.63;5238280;28;21529;-73
2022/10/28 02:03:07;;;;;;;10.82;5.47;;;;;;;15.34;100.00;101591.50;5245327;28;20700;-73
2022/10/28 02:05:46;;;;;;;9.55;5.43;;;;;;;15.27;100.00;101585.16;5245101;28;20028;-73
2022/10/28 02:08:17;;;;;;;11.70;5.28;;;;;;;15.14;100.00;101585.44;5247573;28;20125;-73
2022/10/28 02:11:10;;;;;;;11.93;5.57;;;;;;;15.42;100.00;101588.13;5244389;28;20021;-73
2022/10/28 02:14:03;;;;;;;10.00;5.05;;;;;;;15.24;100.00;101585.41;5240916;28;20403;-73
2022/10/28 02:16:47;;;;;;;9.45;5.40;;;;;;;15.29;100.00;101584.00;5241583;28;20079;-74
2022/10/28 02:19:52;;;;;;;15.18;6.10;;;;;;;15.74;100.00;101578.03;5247678;28;20044;-73
2022/10/28 02:22:31;;;;;;;14.82;5.68;;;;;;;15.51;100.00;101588.13;5234110;28;20037;-73
2022/10/28 02:25:14;;;;;;;9.25;4.93;;;;;;;15.69;100.00;101592.69;5242976;28;20044;-74
2022/10/28 02:27:56;;;;;;;12.95;4.68;;;;;;;15.79;100.00;101582.88;5245781;28;20016;-74
2022/10/28 02:30:33;;;;;;;9.95;4.50;;;;;;;15.76;100.00;101581.41;5245935;28;20029;-73
2022/10/28 02:33:10;;;;;;;11.57;4.53;;;;;;;15.93;100.00;101584.22;5240618;28;20017;-73
2022/10/28 02:35:48;;;;;;;16.67;4.65;;;;;;;15.98;100.00;101571.38;5242471;28;20028;-73
2022/10/28 02:38:27;;;;;;;10.98;4.40;;;;;;;16.07;100.00;101577.63;5237922;28;20127;-74
2022/10/28 02:41:03;;;;;;;11.52;4.88;;;;;;;16.10;100.00;101572.88;5246593;28;20044;-74
2022/10/28 02:43:36;;;;;;;8.75;4.13;;;;;;;16.18;100.00;101580.06;5260898;23;20061;-79
2022/10/28 02:46:09;;;;;;;12.10;4.80;;;;;;;16.19;100.00;101579.91;5234190;28;20040;-77
2022/10/28 02:48:47;;;;;;;11.90;4.85;;;;;;;16.37;100.00;101584.41;5256559;28;20028;-79
2022/10/28 02:51:33;;;;;;;10.90;4.85;;;;;;;16.39;100.00;101579.78;5248336;28;20048;-79
2022/10/28 02:54:18;;;;;;;12.60;4.90;;;;;;;16.46;100.00;101578.19;5265607;28;20025;-79
2022/10/28 02:57:04;;;;;;;13.20;4.38;;;;;;;16.49;100.00;101568.16;5266943;28;20020;-79
2022/10/28 02:59:36;;;;;;;9.43;4.75;;;;;;;16.39;100.00;101566.53;5264190;28;20523;-79
2022/10/28 03:02:08;;;;;;;11.82;4.10;;;;;;;16.37;100.00;101564.06;5265173;28;20029;-79
2022/10/28 03:04:39;;;;;;;11.00;5.07;;;;;;;16.43;100.00;101565.25;5266662;28;20031;-79
2022/10/28 03:07:10;;;;;;;14.15;4.68;;;;;;;16.47;100.00;101563.97;5263379;28;20100;-77
2022/10/28 03:09:42;;;;;;;10.02;4.15;;;;;;;16.49;100.00;101569.97;5256141;28;20024;-77
2022/10/28 03:12:13;;;;;;;8.88;4.43;;;;;;;16.46;100.00;101563.16;5255206;28;20504;-77
2022/10/28 03:14:45;;;;;;;12.90;4.72;;;;;;;16.50;100.00;101561.03;5255081;28;20053;-77
2022/10/28 03:17:16;;;;;;;13.40;4.60;;;;;;;16.56;100.00;101554.31;5253267;28;20531;-77
2022/10/28 03:19:48;;;;;;;11.57;4.55;;;;;;;16.53;100.00;101556.28;5255465;28;20056;-77
2022/10/28 03:22:19;;;;;;;11.13;4.07;;;;;;;16.60;100.00;101567.09;5254967;28;20025;-77
2022/10/28 03:24:50;;;;;;;14.35;4.95;;;;;;;16.60;100.00;101561.78;5254492;28;20028;-77
2022/10/28 03:27:22;;;;;;;12.05;4.28;;;;;;;16.64;100.00;101568.44;5255230;28;20100;-77
2022/10/28 03:29:53;;;;;;;12.98;5.00;;;;;;;16.63;100.00;101564.16;5254509;28;20393;-77
2022/10/28 03:32:24;;;;;;;10.55;4.63;;;;;;;16.65;100.00;101558.69;5255063;28;20040;-77
2022/10/28 03:34:55;;;;;;;12.32;4.35;;;;;;;16.64;100.00;101562.31;5254932;28;20394;-77
2022/10/28 03:37:27;;;;;;;12.35;4.35;;;;;;;16.63;100.00;101560.63;5254265;28;20424;-77
2022/10/28 03:40:01;;;;;;;15.18;4.35;;;;;;;16.67;100.00;101557.56;5254692;28;20398;-77
2022/10/28 03:42:33;;;;;;;11.95;4.45;;;;;;;16.66;100.00;101560.34;5254978;28;20079;-77
2022/10/28 03:45:04;;;;;;;10.13;3.88;;;;;;;16.66;100.00;101558.53;5255642;28;20405;-77
2022/10/28 03:47:36;;;;;;;9.55;4.13;;;;;;;16.71;100.00;101548.34;5254403;28;20028;-77
2022/10/28 03:50:07;;;;;;;11.35;4.03;;;;;;;16.70;100.00;101546.66;5255336;28;20035;-77
2022/10/28 03:52:42;;;;;;;15.00;4.88;;;;;;;16.78;100.00;101546.78;5252998;28;20110;-77
2022/10/28 03:55:14;;;;;;;14.68;4.35;;;;;;;16.74;100.00;101550.72;5249428;28;20025;-77
2022/10/28 03:57:45;;;;;;;12.02;3.90;;;;;;;16.73;100.00;101549.03;5255861;28;20048;-77
2022/10/28 04:00:17;;;;;;;10.98;4.43;;;;;;;16.86;100.00;101553.94;5254983;28;20029;-77
2022/10/28 04:02:49;;;;;;;9.35;4.00;;;;;;;16.80;100.00;101551.91;5235274;28;20028;-77
2022/10/28 04:05:21;;;;;;;11.68;4.45;;;;;;;16.80;100.00;101559.00;5254033;28;20060;-77
2022/10/28 04:07:53;;;;;;;10.85;4.72;;;;;;;16.82;100.00;101554.38;5253525;28;20068;-77
2022/10/28 04:10:24;;;;;;;12.32;4.40;;;;;;;16.82;100.00;101551.72;5253630;28;20029;-77
2022/10/28 04:13:00;;;;;;;10.30;4.70;;;;;;;16.93;100.00;101556.78;5254599;28;20020;-77
2022/10/28 04:15:32;;;;;;;10.32;4.05;;;;;;;16.71;100.00;101552.81;5255310;28;20104;-77
2022/10/28 04:18:04;;;;;;;11.82;4.63;;;;;;;16.78;100.00;101562.66;5254599;28;20480;-77
2022/10/28 04:20:35;;;;;;;13.23;4.78;;;;;;;16.81;100.00;101561.50;5254362;28;20033;-77
2022/10/28 04:23:07;;;;;;;10.82;4.20;;;;;;;16.81;100.00;101564.13;5254712;28;20020;-77
2022/10/28 04:25:39;;;;;;;10.63;3.97;;;;;;;16.78;100.00;101557.34;5252888;28;20029;-77
2022/10/28 04:28:10;;;;;;;11.05;4.25;;;;;;;16.82;100.00;101559.66;5258117;28;20036;-79
2022/10/28 04:30:41;;;;;;;13.07;4.70;;;;;;;16.83;100.00;101559.53;5264421;28;20024;-79
2022/10/28 04:33:13;;;;;;;10.43;3.90;;;;;;;16.84;100.00;101565.66;5265465;28;20025;-79
2022/10/28 04:35:44;;;;;;;12.65;4.30;;;;;;;16.77;100.00;101557.50;5264862;28;20025;-79
2022/10/28 04:38:16;;;;;;;9.80;4.00;;;;;;;16.78;100.00;101554.72;5266585;28;20033;-79
2022/10/28 04:40:50;;;;;;;9.45;4.72;;;;;;;16.71;100.00;101556.28;5270730;28;20024;-79
2022/10/28 04:43:21;;;;;;;10.73;4.35;;;;;;;16.73;100.00;101564.03;5269507;28;20045;-79
2022/10/28 04:45:52;;;;;;;11.60;4.18;;;;;;;16.69;100.00;101557.41;5268305;28;20060;-79
2022/10/28 04:48:24;;;;;;;11.95;4.35;;;;;;;16.73;100.00;101559.63;5270445;28;20589;-79
2022/10/28 04:50:56;;;;;;;8.50;3.92;;;;;;;16.72;100.00;101559.75;5269960;28;20028;-79
2022/10/28 04:53:27;;;;;;;10.57;4.22;;;;;;;16.66;100.00;101560.34;5266676;28;20028;-77
2022/10/28 04:55:59;;;;;;;11.15;4.75;;;;;;;16.63;100.00;101552.69;5263400;28;20531;-79
2022/10/28 04:58:30;;;;;;;11.10;4.80;;;;;;;16.66;100.00;101555.88;5268326;28;20037;-79
2022/10/28 05:01:06;;;;;;;11.48;4.60;;;;;;;16.71;100.00;101542.22;5267421;28;20021;-79
2022/10/28 05:03:37;;;;;;;14.40;5.18;;;;;;;16.61;100.00;101544.09;5267784;28;20032;-79
2022/10/28 05:06:08;;;;;;;8.95;4.35;;;;;;;16.61;100.00;101544.94;5268333;28;20021;-77
2022/10/28 05:08:40;;;;;;;10.10;4.65;;;;;;;16.61;100.00;101550.22;5258122;28;20028;-77
2022/10/28 05:11:11;;;;;;;9.68;4.63;;;;;;;16.57;100.00;101553.34;5259386;28;20037;-78
2022/10/28 05:13:42;;;;;;;14.15;4.15;;;;;;;16.58;100.00;101554.97;5264414;28;20059;-77
2022/10/28 05:16:13;;;;;;;12.13;4.55;;;;;;;16.53;100.00;101558.09;5254969;28;20106;-77
2022/10/28 05:18:45;;;;;;;12.38;4.10;;;;;;;16.55;100.00;101558.75;5255926;28;20032;-77
2022/10/28 05:21:16;;;;;;;10.30;4.50;;;;;;;16.57;100.00;101562.09;5256567;28;20525;-78
2022/10/28 05:23:48;;;;;;;14.32;4.10;;;;;;;16.53;100.00;101550.97;5257243;28;20032;-77
2022/10/28 05:26:19;;;;;;;11.73;4.63;;;;;;;16.54;100.00;101549.16;5239949;28;20366;-77
2022/10/28 05:28:50;;;;;;;9.00;4.22;;;;;;;16.50;100.00;101542.53;5257328;28;20063;-78
2022/10/28 05:31:22;;;;;;;10.85;4.85;;;;;;;16.52;100.00;101545.84;5257458;28;20033;-77
2022/10/28 05:33:53;;;;;;;11.88;4.43;;;;;;;16.51;100.00;101542.34;5255539;28;20056;-77
2022/10/28 05:36:24;;;;;;;10.70;4.90;;;;;;;16.47;100.00;101538.34;5238321;28;20017;-77
2022/10/28 05:38:55;;;;;;;10.95;3.92;;;;;;;16.55;100.00;101542.88;5257372;28;20021;-77
2022/10/28 05:41:27;;;;;;;17.42;4.68;;;;;;;16.53;100.00;101548.34;5256466;28;20025;-77
2022/10/28 05:43:58;;;;;;;10.80;3.97;;;;;;;16.53;100.00;101547.50;5255332;28;20124;-77
2022/10/28 05:46:29;;;;;;;11.07;4.28;;;;;;;16.58;100.00;101545.22;5257057;28;20025;-77
2022/10/28 05:49:01;;;;;;;14.50;4.65;;;;;;;16.55;100.00;101550.81;5256287;28;20027;-77
2022/10/28 05:51:32;;;;;;;16.52;5.13;;;;;;;16.52;100.00;101543.22;5238991;28;20079;-75
2022/10/28 05:54:03;;;;;;;10.95;4.60;;;;;;;16.47;100.00;101541.00;5237481;28;20040;-76
2022/10/28 05:56:34;;;;;;;14.82;4.75;;;;;;;16.46;100.00;101542.00;5257014;28;20013;-77
2022/10/28 05:59:06;;;;;;;12.38;4.07;;;;;;;16.45;100.00;101535.03;5257537;28;20478;-77
2022/10/28 06:01:38;;;;;;;13.35;5.15;;;;;;;16.43;100.00;101547.56;5260548;28;20040;-78
2022/10/28 06:04:09;;;;;;;15.07;4.72;;;;;;;16.49;100.00;101546.97;5256515;28;20675;-77
2022/10/28 06:06:40;;;;;;;9.98;3.97;;;;;;;16.45;100.00;101550.09;5256449;28;20116;-77
2022/10/28 06:09:12;;;;;;;10.60;4.72;;;;;;;16.40;100.00;101553.19;5256852;28;20040;-76
2022/10/28 06:11:43;;;;;;;11.80;4.82;;;;;;;16.36;100.00;101543.03;5256575;28;20107;-76
2022/10/28 06:14:14;;;;;;;15.57;5.05;;;;;;;16.39;100.00;101550.69;5255921;28;20024;-77
2022/10/28 06:16:45;;;;;;;15.85;5.22;;;;;;;16.38;100.00;101556.97;5256537;28;20049;-77
2022/10/28 06:19:17;;;;;;;7.78;4.40;;;;;;;16.43;100.00;101554.69;5253936;28;20047;-77
2022/10/28 06:21:48;;;;;;;10.68;5.20;;;;;;;16.40;100.00;101547.91;5255434;28;20021;-77
2022/10/28 06:24:19;;;;;;;11.10;4.20;;;;;;;16.40;100.00;101552.34;5255653;28;20025;-77
2022/10/28 06:26:50;;;;;;;10.48;5.05;;;;;;;16.39;100.00;101548.84;5254859;28;20461;-76
2022/10/28 06:29:22;;;;;;;11.82;4.30;;;;;;;16.33;100.00;101546.84;5255361;28;20469;-77
2022/10/28 06:31:53;;;;;;;11.05;4.85;;;;;;;16.39;100.00;101556.78;5257143;28;20564;-76
2022/10/28 06:34:24;;;;;;;13.32;5.22;;;;;;;16.42;100.00;101555.66;5255943;28;20461;-76
2022/10/28 06:36:55;;;;;;;10.43;4.43;;;;;;;16.43;100.00;101555.50;5250980;28;20020;-77
2022/10/28 06:39:27;;;;;;;18.50;5.03;;;;;;;16.40;100.00;101549.69;5252393;28;20420;-76
2022/10/28 06:41:58;;;;;;;11.73;4.80;;;;;;;16.41;100.00;101554.03;5254503;28;20021;-77
2022/10/28 06:44:29;;;;;;;16.25;5.07;;;;;;;16.40;100.00;101550.53;5255247;28;20047;-76
2022/10/28 06:47:01;;;;;;;11.68;4.78;;;;;;;16.33;100.00;101541.56;5255624;28;20017;-77
2022/10/28 06:49:32;;;;;;;19.83;5.38;;;;;;;16.40;100.00;101550.53;5255345;28;20231;-77
2022/10/28 06:52:03;;;;;;;9.40;4.60;;;;;;;16.42;100.00;101545.91;5256240;28;20017;-77
2022/10/28 06:54:34;;;;;;;13.35;5.18;;;;;;;16.38;100.00;101544.56;5253726;28;20024;-77
2022/10/28 06:57:06;;;;;;;13.10;5.00;;;;;;;16.44;100.00;101551.91;5254837;28;20024;-77
2022/10/28 06:59:37;;;;;;;14.43;5.35;;;;;;;16.43;100.00;101563.44;5254864;28;20028;-77
2022/10/28 07:02:10;;;;;;;10.75;4.78;;;;;;;16.47;100.00;101553.41;5255362;28;20025;-77
2022/10/28 07:04:42;;;;;;;11.40;4.93;;;;;;;16.50;100.00;101556.56;5255642;28;20028;-77
2022/10/28 07:07:13;;;;;;;15.98;5.22;;;;;;;16.51;100.00;101545.00;5255560;28;20020;-77
2022/10/28 07:09:44;;;;;;;12.82;4.93;;;;;;;16.52;100.00;101557.25;5256032;28;20034;-77
2022/10/28 07:12:15;;;;;;;13.68;5.03;;;;;;;16.55;100.00;101548.19;5254717;28;20028;-77
2022/10/28 07:14:47;;;;;;;12.95;5.22;;;;;;;16.64;100.00;101555.22;5254979;28;20017;-78
2022/10/28 07:17:18;;;;;;;13.38;4.85;;;;;;;16.73;100.00;101546.38;5257290;28;20469;-77
2022/10/28 07:19:49;;;;;;;13.73;5.18;;;;;;;16.82;100.00;101562.31;5256085;28;20451;-77
2022/10/28 07:22:21;;;;;;;9.20;4.75;;;;;;;16.86;100.00;101551.28;5254239;28;20017;-77
2022/10/28 07:24:52;;;;;;;9.77;5.35;;;;;;;16.93;100.00;101559.44;5255382;28;20025;-77
2022/10/28 07:27:23;;;;;;;15.15;5.32;;;;;;;16.94;100.00;101567.22;5255501;28;20021;-77
2022/10/28 07:29:55;;;;;;;13.40;5.13;;;;;;;17.00;100.00;101560.47;5253232;28;20029;-77
2022/10/28 07:32:31;;;;;;;14.32;5.47;;;;;;;17.06;100.00;101567.81;5254719;28;20560;-77
2022/10/28 07:35:02;;;;;;;14.23;5.60;;;;;;;16.97;100.00;101563.44;5253242;28;20067;-77
2022/10/28 07:37:34;;;;;;;13.07;4.90;;;;;;;17.04;100.00;101569.78;5252975;28;20029;-77
2022/10/28 07:40:06;;;;;;;16.52;5.70;;;;;;;17.11;100.00;101576.09;5252737;28;20033;-76
2022/10/28 07:42:37;;;;;;;13.13;4.97;;;;;;;17.15;100.00;101558.94;5255439;28;20036;-77
2022/10/28 07:45:08;;;;;;;14.70;4.88;;;;;;;17.30;100.00;101566.31;5254034;28;20045;-77
2022/10/28 07:47:40;;;;;;;19.58;6.18;;;;;;;17.38;100.00;101558.41;5253108;28;20732;-77
2022/10/28 07:50:11;;;;;;;11.35;5.00;;;;;;;17.42;100.00;101551.81;5255397;28;20024;-77
2022/10/28 07:52:43;;;;;;;10.27;5.13;;;;;;;17.51;100.00;101554.34;5255589;28;20090;-77
2022/10/28 07:55:14;;;;;;;14.07;4.88;;;;;;;17.55;100.00;101538.97;5252147;28;20036;-77
2022/10/28 07:57:46;;;;;;;15.68;5.05;;;;;;;17.66;100.00;101551.09;5254764;28;20398;-77
2022/10/28 08:00:17;;;;;;;11.30;4.93;;;;;;;17.71;100.00;101546.16;5254375;28;20043;-77
2022/10/28 08:02:49;;;;;;;12.27;4.85;;;;;;;17.88;100.00;101560.31;5253850;28;20029;-77
2022/10/28 08:05:20;;;;;;;13.07;5.13;;;;;;;17.93;100.00;101564.16;5254464;28;20037;-77
2022/10/28 08:07:51;;;;;;;11.35;5.03;;;;;;;17.92;100.00;101551.91;5254780;28;20021;-77
2022/10/28 08:10:23;;;;;;;11.52;4.97;;;;;;;18.12;100.00;101557.75;5254911;28;20147;-76
2022/10/28 08:12:56;;;;;;;13.65;4.70;;;;;;;18.16;100.00;101558.25;5257271;28;20028;-76
2022/10/28 08:15:28;;;;;;;11.38;4.35;;;;;;;18.22;100.00;101577.00;5259014;28;20111;-77
2022/10/28 08:17:59;;;;;;;12.82;4.32;;;;;;;18.26;100.00;101579.31;5257261;28;20478;-76
2022/10/28 08:20:31;;;;;;;11.75;4.45;;;;;;;18.37;100.00;101582.50;5258015;28;20478;-77
2022/10/28 08:23:02;;;;;;;16.10;5.47;;;;;;;18.42;100.00;101587.31;5258261;28;20037;-77
2022/10/28 08:25:33;;;;;;;11.60;5.03;;;;;;;18.45;100.00;101584.34;5258384;28;20036;-77
2022/10/28 08:28:04;;;;;;;12.45;4.65;;;;;;;18.44;100.00;101572.88;5256977;28;20079;-77
2022/10/28 08:30:36;;;;;;;12.98;5.35;;;;;;;18.52;100.00;101585.31;5240444;28;20013;-77
2022/10/28 08:33:07;;;;;;;11.60;4.50;;;;;;;18.59;100.00;101581.03;5257381;28;20020;-77
2022/10/28 08:35:39;;;;;;;13.65;4.28;;;;;;;18.63;100.00;101579.69;5258855;28;20029;-77
2022/10/28 08:38:10;;;;;;;12.13;4.55;;;;;;;18.67;100.00;101588.97;5259230;28;20023;-77
2022/10/28 08:41:11;;;;;;;12.50;4.85;;;;;;;18.89;100.00;101579.56;5258198;28;20039;-77
2022/10/28 08:44:21;;;;;;;9.25;4.63;;;;;;;19.05;100.00;101584.03;5251245;23;20084;-72
2022/10/28 08:47:25;;;;;;;12.02;4.70;;;;;;;18.99;100.00;101581.25;5230854;28;20037;-72
2022/10/28 08:50:04;;;;;;;14.63;4.82;;;;;;;19.14;100.00;101569.75;5222805;28;20049;-72
2022/10/28 08:52:46;;;;;;;15.85;5.00;;;;;;;19.12;100.00;101573.56;5229438;28;20029;-72
2022/10/28 08:55:30;;;;;;;11.00;4.50;;;;;;;19.20;100.00;101571.72;5206756;28;20521;-72
2022/10/28 08:58:25;;;;;;;8.73;4.13;;;;;;;19.49;100.00;101582.81;5213000;28;20322;-73
2022/10/28 09:00:58;;;;;;;12.45;4.70;;;;;;;19.38;100.00;101579.50;5213785;28;20049;-72
2022/10/28 09:03:37;;;;;;;12.75;5.20;;;;;;;19.57;100.00;101588.09;5209568;28;20034;-72
2022/10/28 09:06:09;;;;;;;10.60;4.53;;;;;;;19.56;100.00;101594.41;5212975;28;20026;-72
2022/10/28 09:08:47;;;;;;;13.82;5.53;;;;;;;19.75;100.00;101588.72;5210741;28;20022;-72
2022/10/28 09:12:08;;;;;;;11.40;4.65;;;;;;;19.91;100.00;101582.50;5209581;28;20401;-71
2022/10/28 09:15:01;;;;;;;11.02;5.00;;;;;;;20.08;100.00;101594.72;5200282;28;20038;-72
2022/10/28 09:17:58;;;;;;;13.05;4.57;;;;;;;20.29;100.00;101590.63;5211366;28;20066;-72
2022/10/28 09:20:52;;;;;;;16.00;4.95;;;;;;;20.24;100.00;101593.00;5213407;28;20125;-72
2022/10/28 09:23:30;;;;;;;12.13;4.03;;;;;;;20.32;100.00;101598.25;5213075;28;20034;-73
2022/10/28 09:26:16;;;;;;;14.15;4.97;;;;;;;20.54;100.00;101594.00;5212502;28;20483;-72
2022/10/28 09:29:12;;;;;;;17.40;5.70;;;;;;;20.67;100.00;101590.72;5210517;28;20045;-72
2022/10/28 09:31:47;;;;;;;19.70;4.85;;;;;;;20.48;100.00;101584.00;5214771;28;20487;-73
2022/10/28 09:34:55;;;;;;;10.48;4.35;;;;;;;20.57;100.00;101596.28;5211813;28;20030;-72
2022/10/28 09:37:32;;;;;;;12.05;4.57;;;;;;;20.60;100.00;101603.91;5214566;28;20041;-72
2022/10/28 09:40:14;;;;;;;18.55;5.53;;;;;;;20.68;100.00;101608.34;5209907;28;20486;-72
2022/10/28 09:43:14;;;;;;;10.48;3.95;;;;;;;20.82;100.00;101600.41;5214995;28;20014;-73
2022/10/28 09:45:48;;;;;;;13.65;4.78;;;;;;;20.68;100.00;101606.50;5214083;28;20513;-72
2022/10/28 09:48:24;;;;;;;11.13;4.85;;;;;;;20.79;100.00;101599.94;5221967;28;20022;-73
2022/10/28 09:50:57;;;;;;;11.25;4.47;;;;;;;20.78;100.00;101607.09;5222485;28;20026;-73
2022/10/28 09:53:43;;;;;;;11.75;4.32;;;;;;;20.93;100.00;101622.31;5217683;28;20033;-73
2022/10/28 09:56:14;;;;;;;10.43;4.15;;;;;;;20.98;100.00;101598.63;5222187;28;20124;-72
2022/10/28 09:58:47;;;;;;;14.00;4.60;;;;;;;21.00;100.00;101608.09;5218652;28;20122;-73
2022/10/28 10:01:18;;;;;;;14.23;4.70;;;;;;;21.18;100.00;101613.09;5211622;28;20030;-72
2022/10/28 10:03:51;;;;;;;9.90;4.20;;;;;;;21.25;100.00;101603.38;5209896;28;20382;-72
2022/10/28 10:06:34;;;;;;;13.70;4.88;;;;;;;21.48;100.00;101606.00;5193126;28;20025;-72
2022/10/28 10:09:19;;;;;;;12.52;4.72;;;;;;;21.53;100.00;101598.25;5211937;28;20395;-72
2022/10/28 10:11:54;;;;;;;14.55;4.45;;;;;;;21.47;100.00;101604.31;5208083;28;20023;-73
2022/10/28 10:14:30;;;;;;;12.55;4.18;;;;;;;21.53;100.00;101605.44;5210513;28;20506;-72
2022/10/28 10:17:11;;;;;;;10.70;4.13;;;;;;;21.59;100.00;101608.22;5209842;28;20121;-73
2022/10/28 10:20:06;;;;;;;12.38;4.10;;;;;;;21.84;100.00;101607.91;5207299;28;20026;-73
2022/10/28 10:22:39;;;;;;;12.40;4.10;;;;;;;21.71;100.00;101602.41;5212308;28;20457;-72
2022/10/28 10:25:20;;;;;;;10.35;4.45;;;;;;;21.96;100.00;101605.59;5207469;28;20092;-72
2022/10/28 10:27:54;;;;;;;13.15;4.07;;;;;;;21.91;100.00;101600.00;5209563;28;20026;-72
2022/10/28 10:30:38;;;;;;;10.68;3.78;;;;;;;22.07;100.00;101591.75;5210091;28;20037;-72
2022/10/28 10:33:22;;;;;;;9.45;4.13;;;;;;;22.26;100.00;101599.19;5208916;28;20321;-73
2022/10/28 10:36:03;;;;;;;12.80;4.68;;;;;;;22.34;100.00;101590.25;5210359;28;20084;-75
2022/10/28 10:38:35;;;;;;;11.55;4.05;;;;;;;22.24;100.00;101587.91;5207933;28;20461;-75
2022/10/28 10:41:07;;;;;;;10.52;4.15;;;;;;;22.36;100.00;101582.88;5209560;28;20076;-75
2022/10/28 10:43:38;;;;;;;16.80;4.47;;;;;;;22.48;100.00;101581.34;5209705;28;20045;-75
2022/10/28 10:46:15;;;;;;;14.83;4.57;;;;;;;22.66;100.00;101577.41;5210327;28;20366;-76
2022/10/28 10:49:05;;;;;;;14.27;4.03;;;;;;;22.83;100.00;101570.75;5210017;28;20577;-75
2022/10/28 10:51:40;;;;;;;11.88;4.32;;;;;;;22.70;100.00;101573.34;5210987;28;20052;-76
2022/10/28 10:54:14;;;;;;;13.27;4.55;;;;;;;22.82;100.00;101569.13;5207919;28;20057;-75
2022/10/28 10:56:45;;;;;;;13.57;3.90;;;;;;;22.86;100.00;101573.06;5211395;28;20033;-75
2022/10/28 10:59:26;;;;;;;18.10;4.57;;;;;;;23.00;100.00;101579.38;5208889;28;20448;-75
2022/10/28 11:01:58;;;;;;;14.65;4.18;;;;;;;23.05;100.00;101588.44;5209769;28;20022;-75
2022/10/28 11:04:29;;;;;;;11.43;4.73;;;;;;;23.13;100.00;101587.47;5212352;28;20116;-75
2022/10/28 11:07:01;;;;;;;11.77;4.40;;;;;;;23.30;100.00;101590.69;5207698;28;20486;-75
2022/10/28 11:09:36;;;;;;;16.83;4.13;;;;;;;23.41;100.00;101582.13;5210557;28;20014;-75
2022/10/28 11:12:34;;;;;;;14.80;4.32;;;;;;;23.62;100.00;101591.06;5207111;28;20077;-76
2022/10/28 11:15:27;;;;;;;10.95;4.07;;;;;;;23.52;100.00;101580.72;5207618;28;20112;-76
2022/10/28 11:18:19;;;;;;;16.88;4.43;;;;;;;23.27;100.00;101569.69;5209602;28;20026;-75
2022/10/28 11:21:03;;;;;;;11.83;3.97;;;;;;;23.31;100.00;101563.75;5209423;28;20032;-76
2022/10/28 11:23:37;;;;;;;12.68;4.15;;;;;;;23.22;100.00;101561.41;5209841;28;20285;-75
2022/10/28 11:26:14;;;;;;;16.70;4.07;;;;;;;23.19;100.00;101573.34;5210742;28;20036;-75
2022/10/28 11:29:00;;;;;;;15.02;3.90;;;;;;;23.28;100.00;101569.47;5208889;28;20031;-75
2022/10/28 11:31:45;;;;;;;10.80;4.03;;;;;;;23.36;100.00;101571.16;5208079;28;20053;-75
2022/10/28 11:34:31;;;;;;;9.07;4.13;;;;;;;23.37;100.00;101575.47;5208461;28;20065;-76
2022/10/28 11:37:31;;;;;;;13.27;3.92;;;;;;;23.43;100.00;101585.41;5208434;28;20037;-76
2022/10/28 11:40:21;;;;;;;12.60;3.58;;;;;;;23.33;100.00;101574.22;5206130;28;20026;-75
2022/10/28 11:42:53;;;;;;;14.40;3.78;;;;;;;23.37;100.00;101580.84;5209744;28;20034;-75
2022/10/28 11:45:37;;;;;;;14.67;4.40;;;;;;;23.40;100.00;101577.78;5209077;28;20041;-75
2022/10/28 11:48:32;;;;;;;12.10;4.28;;;;;;;23.43;100.00;101571.22;5213197;28;20038;-75
2022/10/28 11:51:25;;;;;;;11.05;3.70;;;;;;;23.63;100.00;101572.13;5214453;28;20092;-75